Главная страница
METAR-TAF:

METAR-TAF

Аэропорты :

Зенджан, Иран

широта: 36-41N, долгота: 048-29E, высота над уровнем моря: 1663 м

Текущие метеонаблюдения

Эта сводка был подготовлена 23 минут назад, в 13:00 UTC
Ветер 10 Узел от северо-северо-восточный
Температура 2°C
Влажность 44%
Давление 1012 hPa
Видимость 10 км и более
Отдельные облака на высоте 2000 фута
Отдельные облака на высоте 3000 фута
Рассеянная облачность на высоте 8000 фута

METAR: OITZ 081300Z 02010KT 9999 SCT020 SCT030 BKN080 02/M09 Q1011 A2987

Время: 16:53 (13:23 UTC)


TAF: отсутствует

Метеонаблюдения и прогнозы для более 4000 аэропортов (сводки METAR и TAF).

Имеющиеся станции представлены на карте желтыми и красными точками.

Чтобы увидеть название станции, наведите на нее мышь.

Затем щелкните, чтобы увидеть метеонаблюдения и метеопрогнозы.

Управление картой: чтобы увеличить масштаб, щелкните зеленые кнопки с черным крестиком; чтобы уменьшить масштаб, щелкните зеленую кнопку с тире; для просмотра соседних карт щелкайте зеленые стрелки.


METAR-TAF: